sensor_id;sensor_type;location;lat;lon;timestamp;temperature;humidity
68719;DHT22;55696;52.138;5.444;2023-11-22T00:00:59;9.40;74.60
68719;DHT22;55696;52.138;5.444;2023-11-22T00:03:26;9.40;74.70
68719;DHT22;55696;52.138;5.444;2023-11-22T00:05:52;9.40;74.70
68719;DHT22;55696;52.138;5.444;2023-11-22T00:08:19;9.40;74.90
68719;DHT22;55696;52.138;5.444;2023-11-22T00:10:46;9.30;74.90
68719;DHT22;55696;52.138;5.444;2023-11-22T00:13:13;9.30;74.90
68719;DHT22;55696;52.138;5.444;2023-11-22T00:15:40;9.30;74.90
68719;DHT22;55696;52.138;5.444;2023-11-22T00:18:06;9.20;75.10
68719;DHT22;55696;52.138;5.444;2023-11-22T00:20:33;9.20;75.00
68719;DHT22;55696;52.138;5.444;2023-11-22T00:23:00;9.20;75.00
68719;DHT22;55696;52.138;5.444;2023-11-22T00:25:27;9.20;74.90
68719;DHT22;55696;52.138;5.444;2023-11-22T00:27:54;9.30;75.00
68719;DHT22;55696;52.138;5.444;2023-11-22T00:30:22;9.20;75.10
68719;DHT22;55696;52.138;5.444;2023-11-22T00:32:51;9.30;75.10
68719;DHT22;55696;52.138;5.444;2023-11-22T00:35:18;9.20;74.90
68719;DHT22;55696;52.138;5.444;2023-11-22T00:37:45;9.30;75.00
68719;DHT22;55696;52.138;5.444;2023-11-22T00:40:13;9.30;75.20
68719;DHT22;55696;52.138;5.444;2023-11-22T00:42:40;9.20;75.20
68719;DHT22;55696;52.138;5.444;2023-11-22T00:45:10;9.30;75.60
68719;DHT22;55696;52.138;5.444;2023-11-22T00:47:37;9.40;76.00
68719;DHT22;55696;52.138;5.444;2023-11-22T00:50:04;9.40;75.40
68719;DHT22;55696;52.138;5.444;2023-11-22T00:52:31;9.30;75.30
68719;DHT22;55696;52.138;5.444;2023-11-22T00:54:58;9.20;75.60
68719;DHT22;55696;52.138;5.444;2023-11-22T00:57:26;9.20;75.60
68719;DHT22;55696;52.138;5.444;2023-11-22T00:59:57;9.10;75.80
68719;DHT22;55696;52.138;5.444;2023-11-22T01:02:24;9.10;75.60
68719;DHT22;55696;52.138;5.444;2023-11-22T01:04:50;9.00;75.50
68719;DHT22;55696;52.138;5.444;2023-11-22T01:07:17;9.00;75.40
68719;DHT22;55696;52.138;5.444;2023-11-22T01:09:44;9.10;75.40
68719;DHT22;55696;52.138;5.444;2023-11-22T01:12:11;9.00;75.50
68719;DHT22;55696;52.138;5.444;2023-11-22T01:14:39;8.90;75.50
68719;DHT22;55696;52.138;5.444;2023-11-22T01:17:05;8.90;75.90
68719;DHT22;55696;52.138;5.444;2023-11-22T01:19:32;8.70;75.50
68719;DHT22;55696;52.138;5.444;2023-11-22T01:22:00;8.80;75.70
68719;DHT22;55696;52.138;5.444;2023-11-22T01:24:27;8.70;75.80
68719;DHT22;55696;52.138;5.444;2023-11-22T01:26:55;8.70;75.60
68719;DHT22;55696;52.138;5.444;2023-11-22T01:29:23;8.40;75.80
68719;DHT22;55696;52.138;5.444;2023-11-22T01:31:50;8.60;75.90
68719;DHT22;55696;52.138;5.444;2023-11-22T01:34:17;8.50;76.00
68719;DHT22;55696;52.138;5.444;2023-11-22T01:36:44;8.50;75.90
68719;DHT22;55696;52.138;5.444;2023-11-22T01:39:12;8.50;76.40
68719;DHT22;55696;52.138;5.444;2023-11-22T01:41:45;8.50;76.70
68719;DHT22;55696;52.138;5.444;2023-11-22T01:44:12;8.40;77.90
68719;DHT22;55696;52.138;5.444;2023-11-22T01:46:38;8.40;76.30
68719;DHT22;55696;52.138;5.444;2023-11-22T01:49:05;8.40;76.20
68719;DHT22;55696;52.138;5.444;2023-11-22T01:51:33;8.40;76.20
68719;DHT22;55696;52.138;5.444;2023-11-22T01:54:00;8.40;76.00
68719;DHT22;55696;52.138;5.444;2023-11-22T01:56:28;8.30;76.20
68719;DHT22;55696;52.138;5.444;2023-11-22T01:58:56;8.40;76.60
68719;DHT22;55696;52.138;5.444;2023-11-22T02:01:29;8.40;76.80
68719;DHT22;55696;52.138;5.444;2023-11-22T02:03:55;8.40;77.10
68719;DHT22;55696;52.138;5.444;2023-11-22T02:06:23;8.30;75.90
68719;DHT22;55696;52.138;5.444;2023-11-22T02:08:51;8.30;76.70
68719;DHT22;55696;52.138;5.444;2023-11-22T02:11:19;8.20;76.20
68719;DHT22;55696;52.138;5.444;2023-11-22T02:13:49;8.20;75.70
68719;DHT22;55696;52.138;5.444;2023-11-22T02:16:22;7.20;75.40
68719;DHT22;55696;52.138;5.444;2023-11-22T02:18:49;8.20;78.00
68719;DHT22;55696;52.138;5.444;2023-11-22T02:21:17;8.20;76.00
68719;DHT22;55696;52.138;5.444;2023-11-22T02:23:43;8.20;76.80
68719;DHT22;55696;52.138;5.444;2023-11-22T02:26:10;8.20;75.90
68719;DHT22;55696;52.138;5.444;2023-11-22T02:28:38;8.20;76.10
68719;DHT22;55696;52.138;5.444;2023-11-22T02:31:04;8.20;76.20
68719;DHT22;55696;52.138;5.444;2023-11-22T02:33:31;8.10;75.60
68719;DHT22;55696;52.138;5.444;2023-11-22T02:35:58;8.10;75.90
68719;DHT22;55696;52.138;5.444;2023-11-22T02:38:25;8.10;76.10
68719;DHT22;55696;52.138;5.444;2023-11-22T02:40:54;8.10;76.00
68719;DHT22;55696;52.138;5.444;2023-11-22T02:43:21;8.00;76.20
68719;DHT22;55696;52.138;5.444;2023-11-22T02:45:49;8.00;76.00
68719;DHT22;55696;52.138;5.444;2023-11-22T02:48:18;7.90;76.20
68719;DHT22;55696;52.138;5.444;2023-11-22T02:50:45;8.00;76.80
68719;DHT22;55696;52.138;5.444;2023-11-22T02:53:12;7.90;76.10
68719;DHT22;55696;52.138;5.444;2023-11-22T02:55:39;7.90;76.20
68719;DHT22;55696;52.138;5.444;2023-11-22T02:58:06;7.90;76.40
68719;DHT22;55696;52.138;5.444;2023-11-22T03:00:33;7.90;76.50
68719;DHT22;55696;52.138;5.444;2023-11-22T03:03:01;7.90;76.10
68719;DHT22;55696;52.138;5.444;2023-11-22T03:05:30;7.80;76.10
68719;DHT22;55696;52.138;5.444;2023-11-22T03:07:57;7.80;76.40
68719;DHT22;55696;52.138;5.444;2023-11-22T03:10:24;7.80;76.40
68719;DHT22;55696;52.138;5.444;2023-11-22T03:12:51;7.70;76.30
68719;DHT22;55696;52.138;5.444;2023-11-22T03:15:18;7.90;77.20
68719;DHT22;55696;52.138;5.444;2023-11-22T03:17:45;7.70;76.40
68719;DHT22;55696;52.138;5.444;2023-11-22T03:20:12;7.70;76.40
68719;DHT22;55696;52.138;5.444;2023-11-22T03:22:39;7.80;76.30
68719;DHT22;55696;52.138;5.444;2023-11-22T03:25:07;7.70;76.20
68719;DHT22;55696;52.138;5.444;2023-11-22T03:27:39;7.70;76.60
68719;DHT22;55696;52.138;5.444;2023-11-22T03:30:06;8.20;76.80
68719;DHT22;55696;52.138;5.444;2023-11-22T03:32:39;7.70;76.50
68719;DHT22;55696;52.138;5.444;2023-11-22T03:35:07;7.70;76.20
68719;DHT22;55696;52.138;5.444;2023-11-22T03:37:36;7.70;76.90
68719;DHT22;55696;52.138;5.444;2023-11-22T03:40:03;7.70;76.60
68719;DHT22;55696;52.138;5.444;2023-11-22T03:42:30;7.70;76.30
68719;DHT22;55696;52.138;5.444;2023-11-22T03:44:56;7.70;76.20
68719;DHT22;55696;52.138;5.444;2023-11-22T03:47:26;7.50;76.10
68719;DHT22;55696;52.138;5.444;2023-11-22T03:49:53;7.70;76.20
68719;DHT22;55696;52.138;5.444;2023-11-22T03:52:20;7.70;76.00
68719;DHT22;55696;52.138;5.444;2023-11-22T03:54:47;7.70;76.20
68719;DHT22;55696;52.138;5.444;2023-11-22T03:57:13;7.70;76.00
68719;DHT22;55696;52.138;5.444;2023-11-22T03:59:40;7.80;76.00
68719;DHT22;55696;52.138;5.444;2023-11-22T04:02:07;7.70;75.90
68719;DHT22;55696;52.138;5.444;2023-11-22T04:04:34;7.80;76.00
68719;DHT22;55696;52.138;5.444;2023-11-22T04:07:01;7.80;75.90
68719;DHT22;55696;52.138;5.444;2023-11-22T04:09:28;7.80;76.60
68719;DHT22;55696;52.138;5.444;2023-11-22T04:11:56;7.80;75.80
68719;DHT22;55696;52.138;5.444;2023-11-22T04:14:22;7.70;76.00
68719;DHT22;55696;52.138;5.444;2023-11-22T04:16:49;7.80;76.00
68719;DHT22;55696;52.138;5.444;2023-11-22T04:19:17;7.80;76.00
68719;DHT22;55696;52.138;5.444;2023-11-22T04:21:44;7.70;75.70
68719;DHT22;55696;52.138;5.444;2023-11-22T04:24:11;7.80;76.00
68719;DHT22;55696;52.138;5.444;2023-11-22T04:26:39;7.80;75.90
68719;DHT22;55696;52.138;5.444;2023-11-22T04:29:06;8.00;75.90
68719;DHT22;55696;52.138;5.444;2023-11-22T04:31:33;7.80;75.90
68719;DHT22;55696;52.138;5.444;2023-11-22T04:33:59;7.80;75.80
68719;DHT22;55696;52.138;5.444;2023-11-22T04:36:27;7.80;75.90
68719;DHT22;55696;52.138;5.444;2023-11-22T04:38:53;7.70;75.60
68719;DHT22;55696;52.138;5.444;2023-11-22T04:41:20;7.80;75.80
68719;DHT22;55696;52.138;5.444;2023-11-22T04:43:47;7.70;76.40
68719;DHT22;55696;52.138;5.444;2023-11-22T04:46:14;7.40;75.60
68719;DHT22;55696;52.138;5.444;2023-11-22T04:48:41;8.00;75.90
68719;DHT22;55696;52.138;5.444;2023-11-22T04:51:11;7.60;75.80
68719;DHT22;55696;52.138;5.444;2023-11-22T04:53:38;7.60;76.00
68719;DHT22;55696;52.138;5.444;2023-11-22T04:56:05;7.60;75.70
68719;DHT22;55696;52.138;5.444;2023-11-22T04:58:33;9.20;77.00
68719;DHT22;55696;52.138;5.444;2023-11-22T05:01:01;7.60;76.70
68719;DHT22;55696;52.138;5.444;2023-11-22T05:03:28;7.50;75.90
68719;DHT22;55696;52.138;5.444;2023-11-22T05:05:55;7.60;75.70
68719;DHT22;55696;52.138;5.444;2023-11-22T05:08:22;7.50;75.90
68719;DHT22;55696;52.138;5.444;2023-11-22T05:10:49;7.60;75.90
68719;DHT22;55696;52.138;5.444;2023-11-22T05:13:16;7.50;75.70
68719;DHT22;55696;52.138;5.444;2023-11-22T05:15:43;7.60;75.80
68719;DHT22;55696;52.138;5.444;2023-11-22T05:18:09;7.50;76.00
68719;DHT22;55696;52.138;5.444;2023-11-22T05:20:36;7.60;76.10
68719;DHT22;55696;52.138;5.444;2023-11-22T05:23:03;7.60;75.90
68719;DHT22;55696;52.138;5.444;2023-11-22T05:25:31;7.50;75.70
68719;DHT22;55696;52.138;5.444;2023-11-22T05:27:58;7.60;76.10
68719;DHT22;55696;52.138;5.444;2023-11-22T05:30:25;7.50;75.90
68719;DHT22;55696;52.138;5.444;2023-11-22T05:32:52;7.50;75.80
68719;DHT22;55696;52.138;5.444;2023-11-22T05:35:20;7.70;75.90
68719;DHT22;55696;52.138;5.444;2023-11-22T05:37:47;7.50;75.80
68719;DHT22;55696;52.138;5.444;2023-11-22T05:40:14;7.60;75.90
68719;DHT22;55696;52.138;5.444;2023-11-22T05:42:42;7.60;75.50
68719;DHT22;55696;52.138;5.444;2023-11-22T05:45:09;7.60;75.70
68719;DHT22;55696;52.138;5.444;2023-11-22T05:47:36;7.60;76.20
68719;DHT22;55696;52.138;5.444;2023-11-22T05:50:05;8.10;76.00
68719;DHT22;55696;52.138;5.444;2023-11-22T05:52:32;7.60;76.80
68719;DHT22;55696;52.138;5.444;2023-11-22T05:54:59;7.60;75.80
68719;DHT22;55696;52.138;5.444;2023-11-22T05:57:30;7.60;75.70
68719;DHT22;55696;52.138;5.444;2023-11-22T05:59:57;7.60;75.90
68719;DHT22;55696;52.138;5.444;2023-11-22T06:02:24;7.70;75.70
68719;DHT22;55696;52.138;5.444;2023-11-22T06:04:51;7.70;75.70
68719;DHT22;55696;52.138;5.444;2023-11-22T06:07:18;7.60;76.10
68719;DHT22;55696;52.138;5.444;2023-11-22T06:09:45;7.60;75.60
68719;DHT22;55696;52.138;5.444;2023-11-22T06:12:11;7.60;76.10
68719;DHT22;55696;52.138;5.444;2023-11-22T06:14:38;7.60;76.00
68719;DHT22;55696;52.138;5.444;2023-11-22T06:17:05;7.70;76.00
68719;DHT22;55696;52.138;5.444;2023-11-22T06:19:32;7.70;76.80
68719;DHT22;55696;52.138;5.444;2023-11-22T06:21:59;7.60;76.00
68719;DHT22;55696;52.138;5.444;2023-11-22T06:24:28;7.70;76.00
68719;DHT22;55696;52.138;5.444;2023-11-22T06:26:55;7.60;76.40
68719;DHT22;55696;52.138;5.444;2023-11-22T06:29:22;7.70;76.00
68719;DHT22;55696;52.138;5.444;2023-11-22T06:31:48;7.70;75.90
68719;DHT22;55696;52.138;5.444;2023-11-22T06:34:15;7.70;75.80
68719;DHT22;55696;52.138;5.444;2023-11-22T06:36:42;7.80;76.10
68719;DHT22;55696;52.138;5.444;2023-11-22T06:39:09;7.70;76.00
68719;DHT22;55696;52.138;5.444;2023-11-22T06:41:36;7.70;76.20
68719;DHT22;55696;52.138;5.444;2023-11-22T06:44:03;7.70;75.80
68719;DHT22;55696;52.138;5.444;2023-11-22T06:46:30;7.70;76.00
68719;DHT22;55696;52.138;5.444;2023-11-22T06:48:57;7.70;75.80
68719;DHT22;55696;52.138;5.444;2023-11-22T06:51:25;7.70;75.80
68719;DHT22;55696;52.138;5.444;2023-11-22T06:53:52;7.70;75.60
68719;DHT22;55696;52.138;5.444;2023-11-22T06:56:23;7.70;75.70
68719;DHT22;55696;52.138;5.444;2023-11-22T06:58:50;7.70;75.70
68719;DHT22;55696;52.138;5.444;2023-11-22T07:01:17;7.70;75.70
68719;DHT22;55696;52.138;5.444;2023-11-22T07:03:44;7.70;75.60
68719;DHT22;55696;52.138;5.444;2023-11-22T07:06:11;7.70;75.90
68719;DHT22;55696;52.138;5.444;2023-11-22T07:08:39;7.70;75.90
68719;DHT22;55696;52.138;5.444;2023-11-22T07:11:05;7.70;75.70
68719;DHT22;55696;52.138;5.444;2023-11-22T07:13:36;7.80;75.60
68719;DHT22;55696;52.138;5.444;2023-11-22T07:16:05;7.70;75.70
68719;DHT22;55696;52.138;5.444;2023-11-22T07:18:33;7.70;76.30
68719;DHT22;55696;52.138;5.444;2023-11-22T07:21:00;7.70;75.50
68719;DHT22;55696;52.138;5.444;2023-11-22T07:23:27;7.80;75.70
68719;DHT22;55696;52.138;5.444;2023-11-22T07:25:55;7.80;75.80
68719;DHT22;55696;52.138;5.444;2023-11-22T07:28:22;7.80;75.80
68719;DHT22;55696;52.138;5.444;2023-11-22T07:30:49;7.70;75.60
68719;DHT22;55696;52.138;5.444;2023-11-22T07:33:16;7.80;75.80
68719;DHT22;55696;52.138;5.444;2023-11-22T07:35:43;7.80;75.80
68719;DHT22;55696;52.138;5.444;2023-11-22T07:38:10;7.80;76.10
68719;DHT22;55696;52.138;5.444;2023-11-22T07:40:38;7.70;75.60
68719;DHT22;55696;52.138;5.444;2023-11-22T07:43:05;7.80;75.70
68719;DHT22;55696;52.138;5.444;2023-11-22T07:45:32;7.80;75.80
68719;DHT22;55696;52.138;5.444;2023-11-22T07:47:58;7.80;75.80
68719;DHT22;55696;52.138;5.444;2023-11-22T07:50:30;7.70;75.20
68719;DHT22;55696;52.138;5.444;2023-11-22T07:52:57;7.80;75.60
68719;DHT22;55696;52.138;5.444;2023-11-22T07:55:23;7.70;75.70
68719;DHT22;55696;52.138;5.444;2023-11-22T07:57:50;7.80;75.60
68719;DHT22;55696;52.138;5.444;2023-11-22T08:00:18;7.80;75.80
68719;DHT22;55696;52.138;5.444;2023-11-22T08:02:46;7.80;76.00
68719;DHT22;55696;52.138;5.444;2023-11-22T08:05:13;7.80;76.00
68719;DHT22;55696;52.138;5.444;2023-11-22T08:07:42;7.70;75.70
68719;DHT22;55696;52.138;5.444;2023-11-22T08:10:13;7.80;76.40
68719;DHT22;55696;52.138;5.444;2023-11-22T08:12:46;7.80;75.30
68719;DHT22;55696;52.138;5.444;2023-11-22T08:15:15;7.80;76.50
68719;DHT22;55696;52.138;5.444;2023-11-22T08:17:42;7.90;76.70
68719;DHT22;55696;52.138;5.444;2023-11-22T08:20:10;7.90;75.80
68719;DHT22;55696;52.138;5.444;2023-11-22T08:22:47;7.80;75.60
68719;DHT22;55696;52.138;5.444;2023-11-22T08:25:16;7.80;77.50
68719;DHT22;55696;52.138;5.444;2023-11-22T08:27:44;8.10;76.40
68719;DHT22;55696;52.138;5.444;2023-11-22T08:30:10;7.90;75.60
68719;DHT22;55696;52.138;5.444;2023-11-22T08:32:42;8.00;75.40
68719;DHT22;55696;52.138;5.444;2023-11-22T08:35:11;8.00;76.40
68719;DHT22;55696;52.138;5.444;2023-11-22T08:37:41;8.10;75.70
68719;DHT22;55696;52.138;5.444;2023-11-22T08:40:10;8.90;76.90
68719;DHT22;55696;52.138;5.444;2023-11-22T08:42:41;8.10;76.10
68719;DHT22;55696;52.138;5.444;2023-11-22T08:45:08;8.20;75.10
68719;DHT22;55696;52.138;5.444;2023-11-22T08:47:35;8.30;75.60
68719;DHT22;55696;52.138;5.444;2023-11-22T08:50:03;8.30;75.10
68719;DHT22;55696;52.138;5.444;2023-11-22T08:52:30;8.30;75.30
68719;DHT22;55696;52.138;5.444;2023-11-22T08:54:57;8.40;75.10
68719;DHT22;55696;52.138;5.444;2023-11-22T08:57:24;8.40;74.70
68719;DHT22;55696;52.138;5.444;2023-11-22T08:59:52;8.50;75.00
68719;DHT22;55696;52.138;5.444;2023-11-22T09:02:21;8.50;75.20
68719;DHT22;55696;52.138;5.444;2023-11-22T09:04:49;8.60;75.00
68719;DHT22;55696;52.138;5.444;2023-11-22T09:07:16;8.50;74.60
68719;DHT22;55696;52.138;5.444;2023-11-22T09:09:43;8.50;75.70
68719;DHT22;55696;52.138;5.444;2023-11-22T09:12:10;8.40;74.60
68719;DHT22;55696;52.138;5.444;2023-11-22T09:14:40;8.70;74.80
68719;DHT22;55696;52.138;5.444;2023-11-22T09:17:13;8.60;75.10
68719;DHT22;55696;52.138;5.444;2023-11-22T09:19:40;8.90;74.00
68719;DHT22;55696;52.138;5.444;2023-11-22T09:22:07;8.80;74.30
68719;DHT22;55696;52.138;5.444;2023-11-22T09:24:35;8.90;74.00
68719;DHT22;55696;52.138;5.444;2023-11-22T09:27:04;9.00;73.90
68719;DHT22;55696;52.138;5.444;2023-11-22T09:29:32;9.00;74.40
68719;DHT22;55696;52.138;5.444;2023-11-22T09:32:00;9.00;73.80
68719;DHT22;55696;52.138;5.444;2023-11-22T09:34:28;9.10;74.10
68719;DHT22;55696;52.138;5.444;2023-11-22T09:36:56;9.10;74.10
68719;DHT22;55696;52.138;5.444;2023-11-22T09:39:22;9.20;73.60
68719;DHT22;55696;52.138;5.444;2023-11-22T09:41:51;9.20;73.50
68719;DHT22;55696;52.138;5.444;2023-11-22T09:44:19;9.40;73.70
68719;DHT22;55696;52.138;5.444;2023-11-22T09:46:48;9.40;73.40
68719;DHT22;55696;52.138;5.444;2023-11-22T09:49:19;9.50;74.20
68719;DHT22;55696;52.138;5.444;2023-11-22T09:51:49;9.50;74.30
68719;DHT22;55696;52.138;5.444;2023-11-22T09:54:18;9.60;73.60
68719;DHT22;55696;52.138;5.444;2023-11-22T09:56:46;9.70;73.20
68719;DHT22;55696;52.138;5.444;2023-11-22T09:59:18;9.70;73.20
68719;DHT22;55696;52.138;5.444;2023-11-22T10:01:50;9.80;73.70
68719;DHT22;55696;52.138;5.444;2023-11-22T10:04:18;9.70;72.30
68719;DHT22;55696;52.138;5.444;2023-11-22T10:06:46;9.80;72.50
68719;DHT22;55696;52.138;5.444;2023-11-22T10:09:13;9.80;72.60
68719;DHT22;55696;52.138;5.444;2023-11-22T10:11:41;10.70;72.90
68719;DHT22;55696;52.138;5.444;2023-11-22T10:14:10;9.80;72.30
68719;DHT22;55696;52.138;5.444;2023-11-22T10:16:37;10.40;72.50
68719;DHT22;55696;52.138;5.444;2023-11-22T10:19:04;9.90;72.40
68719;DHT22;55696;52.138;5.444;2023-11-22T10:21:34;9.90;71.80
68719;DHT22;55696;52.138;5.444;2023-11-22T10:24:02;9.80;72.20
68719;DHT22;55696;52.138;5.444;2023-11-22T10:26:30;9.90;73.30
68719;DHT22;55696;52.138;5.444;2023-11-22T10:28:58;9.80;72.80
68719;DHT22;55696;52.138;5.444;2023-11-22T10:31:25;9.90;72.80
68719;DHT22;55696;52.138;5.444;2023-11-22T10:33:53;9.90;72.80
68719;DHT22;55696;52.138;5.444;2023-11-22T10:36:22;10.00;73.10
68719;DHT22;55696;52.138;5.444;2023-11-22T10:38:50;10.20;72.20
68719;DHT22;55696;52.138;5.444;2023-11-22T10:41:21;10.10;72.20
68719;DHT22;55696;52.138;5.444;2023-11-22T10:43:52;10.20;72.40
68719;DHT22;55696;52.138;5.444;2023-11-22T10:46:28;10.20;73.00
68719;DHT22;55696;52.138;5.444;2023-11-22T10:48:55;10.40;73.20
68719;DHT22;55696;52.138;5.444;2023-11-22T10:51:26;10.50;71.20
68719;DHT22;55696;52.138;5.444;2023-11-22T10:53:56;10.60;72.40
68719;DHT22;55696;52.138;5.444;2023-11-22T10:56:26;10.50;71.20
68719;DHT22;55696;52.138;5.444;2023-11-22T10:58:57;10.40;71.90
68719;DHT22;55696;52.138;5.444;2023-11-22T11:01:26;10.50;72.50
68719;DHT22;55696;52.138;5.444;2023-11-22T11:04:00;11.20;71.70
68719;DHT22;55696;52.138;5.444;2023-11-22T11:06:32;10.60;72.20
68719;DHT22;55696;52.138;5.444;2023-11-22T11:09:06;10.60;71.90
68719;DHT22;55696;52.138;5.444;2023-11-22T11:11:38;10.70;72.70
68719;DHT22;55696;52.138;5.444;2023-11-22T11:14:08;10.80;71.20
68719;DHT22;55696;52.138;5.444;2023-11-22T11:16:39;10.90;72.30
68719;DHT22;55696;52.138;5.444;2023-11-22T11:19:15;11.00;71.10
68719;DHT22;55696;52.138;5.444;2023-11-22T11:21:44;10.80;70.70
68719;DHT22;55696;52.138;5.444;2023-11-22T11:24:11;11.20;69.60
68719;DHT22;55696;52.138;5.444;2023-11-22T11:26:38;11.20;69.20
68719;DHT22;55696;52.138;5.444;2023-11-22T11:29:05;11.20;68.90
68719;DHT22;55696;52.138;5.444;2023-11-22T11:31:38;11.10;68.80
68719;DHT22;55696;52.138;5.444;2023-11-22T11:34:07;11.00;70.70
68719;DHT22;55696;52.138;5.444;2023-11-22T11:36:37;11.00;69.20
68719;DHT22;55696;52.138;5.444;2023-11-22T11:39:07;10.90;70.40
68719;DHT22;55696;52.138;5.444;2023-11-22T11:41:38;10.90;69.50
68719;DHT22;55696;52.138;5.444;2023-11-22T11:44:08;10.90;68.80
68719;DHT22;55696;52.138;5.444;2023-11-22T11:46:43;10.80;69.00
68719;DHT22;55696;52.138;5.444;2023-11-22T11:49:12;10.70;70.70
68719;DHT22;55696;52.138;5.444;2023-11-22T11:51:41;10.60;70.20
68719;DHT22;55696;52.138;5.444;2023-11-22T11:54:09;10.70;69.10
68719;DHT22;55696;52.138;5.444;2023-11-22T11:56:39;11.40;69.70
68719;DHT22;55696;52.138;5.444;2023-11-22T11:59:08;10.70;69.40
68719;DHT22;55696;52.138;5.444;2023-11-22T12:01:34;10.70;70.40
68719;DHT22;55696;52.138;5.444;2023-11-22T12:04:02;10.80;69.40
68719;DHT22;55696;52.138;5.444;2023-11-22T12:06:29;10.90;69.30
68719;DHT22;55696;52.138;5.444;2023-11-22T12:09:00;11.00;69.00
68719;DHT22;55696;52.138;5.444;2023-11-22T12:11:27;10.90;69.30
68719;DHT22;55696;52.138;5.444;2023-11-22T12:13:56;11.00;68.80
68719;DHT22;55696;52.138;5.444;2023-11-22T12:16:25;11.20;68.60
68719;DHT22;55696;52.138;5.444;2023-11-22T12:18:52;11.20;68.40
68719;DHT22;55696;52.138;5.444;2023-11-22T12:21:19;11.30;68.40
68719;DHT22;55696;52.138;5.444;2023-11-22T12:23:47;11.30;68.10
68719;DHT22;55696;52.138;5.444;2023-11-22T12:26:17;11.40;68.60
68719;DHT22;55696;52.138;5.444;2023-11-22T12:28:47;11.50;68.80
68719;DHT22;55696;52.138;5.444;2023-11-22T12:31:29;11.60;68.50
68719;DHT22;55696;52.138;5.444;2023-11-22T12:34:02;11.80;67.60
68719;DHT22;55696;52.138;5.444;2023-11-22T12:36:29;11.90;66.50
68719;DHT22;55696;52.138;5.444;2023-11-22T12:38:56;11.90;65.90
68719;DHT22;55696;52.138;5.444;2023-11-22T12:41:26;11.90;65.80
68719;DHT22;55696;52.138;5.444;2023-11-22T12:44:05;11.90;66.60
68719;DHT22;55696;52.138;5.444;2023-11-22T12:49:11;11.80;67.70
68719;DHT22;55696;52.138;5.444;2023-11-22T12:51:38;11.70;65.40
68719;DHT22;55696;52.138;5.444;2023-11-22T12:54:05;11.50;65.50
68719;DHT22;55696;52.138;5.444;2023-11-22T12:56:33;11.60;65.60
68719;DHT22;55696;52.138;5.444;2023-11-22T12:59:00;11.50;65.40
68719;DHT22;55696;52.138;5.444;2023-11-22T13:01:27;11.50;65.80
68719;DHT22;55696;52.138;5.444;2023-11-22T13:03:54;11.40;65.90
68719;DHT22;55696;52.138;5.444;2023-11-22T13:06:21;11.30;66.00
68719;DHT22;55696;52.138;5.444;2023-11-22T13:08:51;11.30;66.10
68719;DHT22;55696;52.138;5.444;2023-11-22T13:11:21;11.70;66.30
68719;DHT22;55696;52.138;5.444;2023-11-22T13:13:48;11.40;68.00
68719;DHT22;55696;52.138;5.444;2023-11-22T13:16:17;11.40;66.30
68719;DHT22;55696;52.138;5.444;2023-11-22T13:18:45;11.30;66.10
68719;DHT22;55696;52.138;5.444;2023-11-22T13:21:12;11.30;66.20
68719;DHT22;55696;52.138;5.444;2023-11-22T13:23:39;11.30;66.30
68719;DHT22;55696;52.138;5.444;2023-11-22T13:26:06;11.30;66.80
68719;DHT22;55696;52.138;5.444;2023-11-22T13:28:35;11.20;66.70
68719;DHT22;55696;52.138;5.444;2023-11-22T13:31:02;11.10;66.90
68719;DHT22;55696;52.138;5.444;2023-11-22T13:33:30;11.00;67.20
68719;DHT22;55696;52.138;5.444;2023-11-22T13:35:57;11.00;67.50
68719;DHT22;55696;52.138;5.444;2023-11-22T13:38:25;11.10;67.70
68719;DHT22;55696;52.138;5.444;2023-11-22T13:40:52;10.90;68.20
68719;DHT22;55696;52.138;5.444;2023-11-22T13:43:19;11.00;68.00
68719;DHT22;55696;52.138;5.444;2023-11-22T13:45:46;11.00;67.60
68719;DHT22;55696;52.138;5.444;2023-11-22T13:48:13;10.90;67.60
68719;DHT22;55696;52.138;5.444;2023-11-22T13:50:40;10.90;67.70
68719;DHT22;55696;52.138;5.444;2023-11-22T13:53:07;10.90;67.80
68719;DHT22;55696;52.138;5.444;2023-11-22T13:55:37;11.30;68.00
68719;DHT22;55696;52.138;5.444;2023-11-22T13:58:05;10.80;68.10
68719;DHT22;55696;52.138;5.444;2023-11-22T14:00:32;10.80;68.10
68719;DHT22;55696;52.138;5.444;2023-11-22T14:03:01;10.80;68.10
68719;DHT22;55696;52.138;5.444;2023-11-22T14:05:37;10.80;69.10
68719;DHT22;55696;52.138;5.444;2023-11-22T14:08:06;10.80;69.00
68719;DHT22;55696;52.138;5.444;2023-11-22T14:10:33;10.80;68.40
68719;DHT22;55696;52.138;5.444;2023-11-22T14:13:00;10.80;68.50
68719;DHT22;55696;52.138;5.444;2023-11-22T14:15:28;10.80;68.60
68719;DHT22;55696;52.138;5.444;2023-11-22T14:17:55;10.70;68.80
68719;DHT22;55696;52.138;5.444;2023-11-22T14:20:22;10.60;68.90
68719;DHT22;55696;52.138;5.444;2023-11-22T14:22:51;10.60;68.80
68719;DHT22;55696;52.138;5.444;2023-11-22T14:25:18;10.50;69.00
68719;DHT22;55696;52.138;5.444;2023-11-22T14:27:46;10.50;69.30
68719;DHT22;55696;52.138;5.444;2023-11-22T14:30:18;10.50;70.20
68719;DHT22;55696;52.138;5.444;2023-11-22T14:32:47;10.40;69.50
68719;DHT22;55696;52.138;5.444;2023-11-22T14:35:14;10.50;69.70
68719;DHT22;55696;52.138;5.444;2023-11-22T14:37:41;10.60;69.80
68719;DHT22;55696;52.138;5.444;2023-11-22T14:40:09;10.40;69.70
68719;DHT22;55696;52.138;5.444;2023-11-22T14:42:44;10.40;70.10
68719;DHT22;55696;52.138;5.444;2023-11-22T14:45:19;10.30;70.10
68719;DHT22;55696;52.138;5.444;2023-11-22T14:47:46;10.30;70.20
68719;DHT22;55696;52.138;5.444;2023-11-22T14:50:14;10.30;70.20
68719;DHT22;55696;52.138;5.444;2023-11-22T14:52:42;10.40;70.30
68719;DHT22;55696;52.138;5.444;2023-11-22T14:55:11;10.30;70.60
68719;DHT22;55696;52.138;5.444;2023-11-22T14:57:39;10.40;70.60
68719;DHT22;55696;52.138;5.444;2023-11-22T15:00:07;10.40;70.80
68719;DHT22;55696;52.138;5.444;2023-11-22T15:02:41;10.30;70.70
68719;DHT22;55696;52.138;5.444;2023-11-22T15:05:14;10.30;70.90
68719;DHT22;55696;52.138;5.444;2023-11-22T15:07:41;10.30;70.60
68719;DHT22;55696;52.138;5.444;2023-11-22T15:10:09;10.30;70.50
68719;DHT22;55696;52.138;5.444;2023-11-22T15:12:37;10.20;71.10
68719;DHT22;55696;52.138;5.444;2023-11-22T15:15:07;10.20;71.40
68719;DHT22;55696;52.138;5.444;2023-11-22T15:17:34;10.20;71.10
68719;DHT22;55696;52.138;5.444;2023-11-22T15:20:01;10.20;71.20
68719;DHT22;55696;52.138;5.444;2023-11-22T15:22:28;10.20;70.90
68719;DHT22;55696;52.138;5.444;2023-11-22T15:24:55;10.10;70.90
68719;DHT22;55696;52.138;5.444;2023-11-22T15:27:22;10.10;71.00
68719;DHT22;55696;52.138;5.444;2023-11-22T15:29:48;10.10;71.10
68719;DHT22;55696;52.138;5.444;2023-11-22T15:32:15;10.10;71.20
68719;DHT22;55696;52.138;5.444;2023-11-22T15:34:43;9.90;71.10
68719;DHT22;55696;52.138;5.444;2023-11-22T15:37:13;10.00;71.40
68719;DHT22;55696;52.138;5.444;2023-11-22T15:39:40;10.10;71.50
68719;DHT22;55696;52.138;5.444;2023-11-22T15:42:07;10.00;71.60
68719;DHT22;55696;52.138;5.444;2023-11-22T15:44:34;10.00;71.50
68719;DHT22;55696;52.138;5.444;2023-11-22T15:47:01;9.90;71.40